createdAt,value
2018-11-25T00:00:20.085Z,6.70
2018-11-25T00:02:49.239Z,6.70
2018-11-25T00:05:18.300Z,6.70
2018-11-25T00:07:47.326Z,6.70
2018-11-25T00:10:16.355Z,6.70
2018-11-25T00:12:45.369Z,6.70
2018-11-25T00:15:14.427Z,6.70
2018-11-25T00:17:43.431Z,6.80
2018-11-25T00:20:13.687Z,6.80
2018-11-25T00:22:43.078Z,6.80
2018-11-25T00:25:13.224Z,6.80
2018-11-25T00:27:42.296Z,6.80
2018-11-25T00:30:13.354Z,6.80
2018-11-25T00:32:42.473Z,6.80
2018-11-25T00:35:12.682Z,6.80
2018-11-25T00:37:48.087Z,6.80
2018-11-25T00:40:12.096Z,6.80
2018-11-25T00:42:41.247Z,6.80
2018-11-25T00:45:13.779Z,6.80
2018-11-25T00:47:43.460Z,6.80
2018-11-25T00:50:13.648Z,6.80
2018-11-25T00:52:42.650Z,6.80
2018-11-25T00:55:13.674Z,6.90
2018-11-25T00:57:42.711Z,6.90
2018-11-25T01:00:13.309Z,6.90
2018-11-25T01:02:42.324Z,6.90
2018-11-25T01:05:11.945Z,6.90
2018-11-25T01:07:41.020Z,6.90
2018-11-25T01:10:13.148Z,6.90
2018-11-25T01:12:42.175Z,6.80
2018-11-25T01:15:13.275Z,6.80
2018-11-25T01:17:42.333Z,6.90
2018-11-25T01:20:14.592Z,6.90
2018-11-25T01:22:43.598Z,6.90
2018-11-25T01:25:12.735Z,6.90
2018-11-25T01:27:41.874Z,6.90
2018-11-25T01:30:15.233Z,6.90
2018-11-25T01:32:44.327Z,6.90
2018-11-25T01:35:13.712Z,6.80
2018-11-25T01:37:42.969Z,6.80
2018-11-25T01:40:14.122Z,6.80
2018-11-25T01:42:43.270Z,6.70
2018-11-25T01:45:15.903Z,6.70
2018-11-25T01:47:45.032Z,6.70
2018-11-25T01:50:17.630Z,6.60
2018-11-25T01:52:47.268Z,6.60
2018-11-25T01:55:17.708Z,6.60
2018-11-25T01:57:46.811Z,6.60
2018-11-25T02:00:20.292Z,6.50
2018-11-25T02:02:49.580Z,6.50
2018-11-25T02:05:18.704Z,6.40
2018-11-25T02:07:47.678Z,6.40
2018-11-25T02:10:18.734Z,6.40
2018-11-25T02:12:47.850Z,6.40
2018-11-25T02:15:17.477Z,6.40
2018-11-25T02:17:46.547Z,6.50
2018-11-25T02:20:20.890Z,6.50
2018-11-25T02:22:50.322Z,6.50
2018-11-25T02:25:19.486Z,6.50
2018-11-25T02:27:48.506Z,6.50
2018-11-25T02:30:18.083Z,6.50
2018-11-25T02:32:47.449Z,6.50
2018-11-25T02:35:17.230Z,6.50
2018-11-25T02:37:46.236Z,6.50
2018-11-25T02:40:16.866Z,6.50
2018-11-25T02:42:45.986Z,6.40
2018-11-25T02:45:16.126Z,6.40
2018-11-25T02:47:45.139Z,6.40
2018-11-25T02:50:26.257Z,6.40
2018-11-25T02:52:58.226Z,6.40
2018-11-25T02:55:27.687Z,6.40
2018-11-25T02:57:56.706Z,6.30
2018-11-25T03:00:25.873Z,6.30
2018-11-25T03:02:54.939Z,6.30
2018-11-25T03:05:24.038Z,6.30
2018-11-25T03:07:53.111Z,6.30
2018-11-25T03:10:22.581Z,6.30
2018-11-25T03:12:51.692Z,6.40
2018-11-25T03:15:20.839Z,6.40
2018-11-25T03:17:49.914Z,6.40
2018-11-25T03:20:18.987Z,6.40
2018-11-25T03:22:48.315Z,6.30
2018-11-25T03:25:18.397Z,6.30
2018-11-25T03:27:47.619Z,6.30
2018-11-25T03:30:19.655Z,6.30
2018-11-25T03:32:50.735Z,6.30
2018-11-25T03:35:19.817Z,6.30
2018-11-25T03:37:48.913Z,6.30
2018-11-25T03:40:18.803Z,6.30
2018-11-25T03:42:47.882Z,6.40
2018-11-25T03:45:19.077Z,6.40
2018-11-25T03:47:48.123Z,6.40
2018-11-25T03:50:17.203Z,6.40
2018-11-25T03:52:46.217Z,6.40
2018-11-25T03:55:16.271Z,6.40
2018-11-25T03:57:45.353Z,6.40
2018-11-25T04:00:20.358Z,6.40
2018-11-25T04:02:52.496Z,6.40
2018-11-25T04:05:21.502Z,6.40
2018-11-25T04:07:50.910Z,6.40
2018-11-25T04:10:20.057Z,6.40
2018-11-25T04:12:49.095Z,6.50
2018-11-25T04:15:18.952Z,6.50
2018-11-25T04:17:48.467Z,6.50
2018-11-25T04:20:20.987Z,6.40
2018-11-25T04:22:50.270Z,6.40
2018-11-25T04:25:19.326Z,6.40
2018-11-25T04:27:48.384Z,6.30
2018-11-25T04:30:18.483Z,6.30
2018-11-25T04:32:48.544Z,6.30
2018-11-25T04:35:17.555Z,6.30
2018-11-25T04:37:46.627Z,6.30
2018-11-25T04:40:16.586Z,6.30
2018-11-25T04:42:45.612Z,6.30
2018-11-25T04:45:16.308Z,6.30
2018-11-25T04:47:45.887Z,6.40
2018-11-25T04:50:16.928Z,6.40
2018-11-25T04:52:46.035Z,6.40
2018-11-25T04:55:15.137Z,6.40
2018-11-25T04:57:51.171Z,6.40
2018-11-25T05:00:20.475Z,6.40
2018-11-25T05:02:50.406Z,6.40
2018-11-25T05:05:19.606Z,6.40
2018-11-25T05:07:48.724Z,6.40
2018-11-25T05:10:18.406Z,6.40
2018-11-25T05:12:47.450Z,6.40
2018-11-25T05:15:20.510Z,6.40
2018-11-25T05:17:49.654Z,6.40
2018-11-25T05:20:19.594Z,6.40
2018-11-25T05:22:48.653Z,6.40
2018-11-25T05:25:18.830Z,6.40
2018-11-25T05:27:47.921Z,6.40
2018-11-25T05:30:17.917Z,6.40
2018-11-25T05:32:46.977Z,6.40
2018-11-25T05:35:19.266Z,6.40
2018-11-25T05:37:48.389Z,6.40
2018-11-25T05:40:18.442Z,6.40
2018-11-25T05:42:47.495Z,6.50
2018-11-25T05:45:19.072Z,6.50
2018-11-25T05:47:48.289Z,6.50
2018-11-25T05:50:19.076Z,6.50
2018-11-25T05:52:48.146Z,6.40
2018-11-25T05:55:17.222Z,6.40
2018-11-25T05:57:46.297Z,6.40
2018-11-25T06:00:20.836Z,6.40
2018-11-25T06:02:49.844Z,6.40
2018-11-25T06:05:18.830Z,6.40
2018-11-25T06:07:48.852Z,6.30
2018-11-25T06:10:17.922Z,6.30
2018-11-25T06:12:46.912Z,6.30
2018-11-25T06:15:15.965Z,6.30
2018-11-25T06:17:45.078Z,6.30
2018-11-25T06:20:15.216Z,6.30
2018-11-25T06:22:44.519Z,6.30
2018-11-25T06:25:14.816Z,6.20
2018-11-25T06:27:43.901Z,6.20
2018-11-25T06:30:20.559Z,6.20
2018-11-25T06:32:49.732Z,6.20
2018-11-25T06:35:19.696Z,6.10
2018-11-25T06:37:48.748Z,6.10
2018-11-25T06:40:18.762Z,6.10
2018-11-25T06:42:48.020Z,6.00
2018-11-25T06:45:26.297Z,6.00
2018-11-25T06:47:56.232Z,6.00
2018-11-25T06:50:25.284Z,6.00
2018-11-25T06:52:54.372Z,6.00
2018-11-25T06:55:23.413Z,6.00
2018-11-25T06:57:52.581Z,6.00
2018-11-25T07:00:22.697Z,6.00
2018-11-25T07:02:51.807Z,6.00
2018-11-25T07:05:20.940Z,6.10
2018-11-25T07:07:49.993Z,6.10
2018-11-25T07:10:20.942Z,6.00
2018-11-25T07:12:51.035Z,6.10
2018-11-25T07:15:20.029Z,6.10
2018-11-25T07:17:49.103Z,6.10
2018-11-25T07:20:18.983Z,6.20
2018-11-25T07:22:48.032Z,6.20
2018-11-25T07:25:20.127Z,6.20
2018-11-25T07:27:49.192Z,6.20
2018-11-25T07:30:20.946Z,6.20
2018-11-25T07:32:50.031Z,6.20
2018-11-25T07:35:19.116Z,6.30
2018-11-25T07:37:48.292Z,6.30
2018-11-25T07:40:18.366Z,6.30
2018-11-25T07:42:47.438Z,6.30
2018-11-25T07:45:17.772Z,6.30
2018-11-25T07:47:46.871Z,6.30
2018-11-25T07:50:15.947Z,6.20
2018-11-25T07:52:46.049Z,6.20
2018-11-25T07:55:16.225Z,6.20
2018-11-25T07:57:45.827Z,6.10
2018-11-25T08:00:15.831Z,6.10
2018-11-25T08:02:45.016Z,6.10
2018-11-25T08:05:18.596Z,6.10
2018-11-25T08:07:47.615Z,6.10
2018-11-25T08:10:16.748Z,6.10
2018-11-25T08:12:46.316Z,6.10
2018-11-25T08:15:16.338Z,6.10
2018-11-25T08:17:46.091Z,6.10
2018-11-25T08:20:16.161Z,6.10
2018-11-25T08:22:45.363Z,6.10
2018-11-25T08:25:16.319Z,6.10
2018-11-25T08:27:45.374Z,6.10
2018-11-25T08:30:17.318Z,6.10
2018-11-25T08:32:46.338Z,6.10
2018-11-25T08:35:16.054Z,6.00
2018-11-25T08:37:45.154Z,6.00
2018-11-25T08:40:15.403Z,6.00
2018-11-25T08:42:44.498Z,6.00
2018-11-25T08:45:14.183Z,6.00
2018-11-25T08:47:43.598Z,5.90
2018-11-25T08:50:14.682Z,5.90
2018-11-25T08:52:44.632Z,6.00
2018-11-25T08:55:15.572Z,6.00
2018-11-25T08:57:44.878Z,6.00
2018-11-25T09:00:17.841Z,6.10
2018-11-25T09:02:47.138Z,6.10
2018-11-25T09:05:16.438Z,6.10
2018-11-25T09:07:45.514Z,6.10
2018-11-25T09:10:16.618Z,6.10
2018-11-25T09:12:47.379Z,6.10
2018-11-25T09:15:20.853Z,6.00
2018-11-25T09:17:49.954Z,6.00
2018-11-25T09:20:20.079Z,6.00
2018-11-25T09:22:49.540Z,5.90
2018-11-25T09:25:21.061Z,5.90
2018-11-25T09:27:50.098Z,5.90
2018-11-25T09:30:21.472Z,5.80
2018-11-25T09:33:13.369Z,5.80
2018-11-25T09:35:42.568Z,5.80
2018-11-25T09:38:11.609Z,5.80
2018-11-25T09:40:40.674Z,5.80
2018-11-25T09:43:09.791Z,5.80
2018-11-25T09:45:38.847Z,5.80
2018-11-25T09:48:07.950Z,5.80
2018-11-25T09:50:37.116Z,5.80
2018-11-25T09:53:06.133Z,5.70
2018-11-25T09:55:35.208Z,5.70
2018-11-25T09:58:04.404Z,5.70
2018-11-25T10:00:34.647Z,5.70
2018-11-25T10:03:04.873Z,5.60
2018-11-25T10:05:33.973Z,5.60
2018-11-25T10:08:03.119Z,5.70
2018-11-25T10:10:32.247Z,5.70
2018-11-25T10:13:01.442Z,5.70
2018-11-25T10:15:30.933Z,5.70
2018-11-25T10:18:00.341Z,5.70
2018-11-25T10:20:30.588Z,5.70
2018-11-25T10:22:59.778Z,5.70
2018-11-25T10:25:28.817Z,5.80
2018-11-25T10:27:57.861Z,5.80
2018-11-25T10:30:28.019Z,5.80
2018-11-25T10:32:59.215Z,5.80
2018-11-25T10:35:28.332Z,5.80
2018-11-25T10:37:57.429Z,5.80
2018-11-25T10:40:26.487Z,5.70
2018-11-25T10:42:55.690Z,5.80
2018-11-25T10:45:26.595Z,5.80
2018-11-25T10:47:56.281Z,5.80
2018-11-25T10:50:25.369Z,5.80
2018-11-25T10:52:54.366Z,5.70
2018-11-25T10:55:23.523Z,5.60
2018-11-25T10:57:53.271Z,5.60
2018-11-25T11:00:34.952Z,5.50
2018-11-25T11:03:09.594Z,5.50
2018-11-25T11:05:44.081Z,5.50
2018-11-25T11:08:13.188Z,5.50
2018-11-25T11:10:42.593Z,5.50
2018-11-25T11:13:11.885Z,5.50
2018-11-25T11:15:41.072Z,5.50
2018-11-25T11:18:10.246Z,5.50
2018-11-25T11:20:39.455Z,5.50
2018-11-25T11:23:08.557Z,5.50
2018-11-25T11:25:37.573Z,5.50
2018-11-25T11:28:06.682Z,5.50
2018-11-25T11:30:36.531Z,5.60
2018-11-25T11:33:05.626Z,5.50
2018-11-25T11:35:34.651Z,5.40
2018-11-25T11:38:03.775Z,5.40
2018-11-25T11:40:32.848Z,5.40
2018-11-25T11:43:01.929Z,5.30
2018-11-25T11:45:30.920Z,5.20
2018-11-25T11:47:59.937Z,5.20
2018-11-25T11:50:29.030Z,5.20
2018-11-25T11:52:58.106Z,5.10
2018-11-25T11:55:27.072Z,5.10
2018-11-25T11:57:56.184Z,5.10
2018-11-25T12:00:27.822Z,5.10
2018-11-25T12:02:56.948Z,5.10
2018-11-25T12:05:26.174Z,5.10
2018-11-25T12:07:55.256Z,5.10
2018-11-25T12:10:24.406Z,5.10
2018-11-25T12:12:53.542Z,5.20
2018-11-25T12:15:30.784Z,5.20
2018-11-25T12:17:57.560Z,5.30
2018-11-25T12:20:27.728Z,5.30
2018-11-25T12:22:57.306Z,5.30
2018-11-25T12:25:26.425Z,5.40
2018-11-25T12:27:55.638Z,5.40
2018-11-25T12:30:24.738Z,5.30
2018-11-25T12:32:53.788Z,5.30
2018-11-25T12:35:22.936Z,5.30
2018-11-25T12:37:51.929Z,5.20
2018-11-25T12:40:21.950Z,5.20
2018-11-25T12:42:53.249Z,5.30
2018-11-25T12:45:22.356Z,5.30
2018-11-25T12:47:51.448Z,5.30
2018-11-25T12:50:22.715Z,5.20
2018-11-25T12:52:51.881Z,5.20
2018-11-25T12:55:23.159Z,5.20
2018-11-25T12:57:52.550Z,5.20
2018-11-25T13:00:31.078Z,5.20
2018-11-25T13:03:00.142Z,5.20
2018-11-25T13:05:29.266Z,5.20
2018-11-25T13:07:58.373Z,5.10
2018-11-25T13:10:27.353Z,5.10
2018-11-25T13:12:56.397Z,5.10
2018-11-25T13:15:25.471Z,5.10
2018-11-25T13:17:54.602Z,5.20
2018-11-25T13:20:23.661Z,5.30
2018-11-25T13:22:52.847Z,5.30
2018-11-25T13:25:21.898Z,5.30
2018-11-25T13:27:51.337Z,5.30
2018-11-25T13:30:23.617Z,5.40
2018-11-25T13:32:54.693Z,5.40
2018-11-25T13:35:24.424Z,5.50
2018-11-25T13:37:53.495Z,5.50
2018-11-25T13:40:22.715Z,5.50
2018-11-25T13:42:51.775Z,5.50
2018-11-25T13:45:20.871Z,5.40
2018-11-25T13:47:50.005Z,5.40
2018-11-25T13:50:19.057Z,5.40
2018-11-25T13:52:48.915Z,5.50
2018-11-25T13:55:22.466Z,5.50
2018-11-25T13:57:51.793Z,5.50
2018-11-25T14:00:31.556Z,5.60
2018-11-25T14:03:01.131Z,5.60
2018-11-25T14:05:30.204Z,5.50
2018-11-25T14:07:59.353Z,5.50
2018-11-25T14:10:30.490Z,5.60
2018-11-25T14:12:59.619Z,5.60
2018-11-25T14:15:29.679Z,5.60
2018-11-25T14:17:57.780Z,5.60
2018-11-25T14:20:26.866Z,5.70
2018-11-25T14:22:55.954Z,5.70
2018-11-25T14:25:25.682Z,5.80
2018-11-25T14:27:57.985Z,5.80
2018-11-25T14:30:28.518Z,5.80
2018-11-25T14:32:57.504Z,5.80
2018-11-25T14:35:26.554Z,5.80
2018-11-25T14:37:55.676Z,5.80
2018-11-25T14:40:24.886Z,5.80
2018-11-25T14:42:53.979Z,5.80
2018-11-25T14:45:23.051Z,5.80
2018-11-25T14:47:52.743Z,5.80
2018-11-25T14:50:21.763Z,5.90
2018-11-25T14:52:52.102Z,5.90
2018-11-25T14:55:21.235Z,5.90
2018-11-25T14:57:50.384Z,5.90
2018-11-25T15:00:20.855Z,5.90
2018-11-25T15:02:58.071Z,5.80
2018-11-25T15:05:35.736Z,5.80
2018-11-25T15:08:04.854Z,5.80
2018-11-25T15:10:33.898Z,5.70
2018-11-25T15:13:02.938Z,5.70
2018-11-25T15:15:31.920Z,5.60
2018-11-25T15:18:01.030Z,5.70
2018-11-25T15:20:30.112Z,5.70
2018-11-25T15:23:02.106Z,5.60
2018-11-25T15:25:34.037Z,5.60
2018-11-25T15:28:03.335Z,5.60
2018-11-25T15:30:32.425Z,5.60
2018-11-25T15:33:01.577Z,5.60
2018-11-25T15:35:30.680Z,5.50
2018-11-25T15:37:59.767Z,5.50
2018-11-25T15:40:30.311Z,5.50
2018-11-25T15:42:59.346Z,5.50
2018-11-25T15:45:28.566Z,5.50
2018-11-25T15:48:00.646Z,5.50
2018-11-25T15:50:30.377Z,5.50
2018-11-25T15:52:59.461Z,5.50
2018-11-25T15:55:28.522Z,5.50
2018-11-25T15:57:57.662Z,5.50
2018-11-25T16:00:26.681Z,5.50
2018-11-25T16:02:55.702Z,5.50
2018-11-25T16:05:26.422Z,5.40
2018-11-25T16:07:55.611Z,5.50
2018-11-25T16:10:24.673Z,5.50
2018-11-25T16:12:54.008Z,5.50
2018-11-25T16:15:24.537Z,5.50
2018-11-25T16:17:53.567Z,5.50
2018-11-25T16:20:24.624Z,5.50
2018-11-25T16:22:59.056Z,5.50
2018-11-25T16:25:59.562Z,5.50
2018-11-25T16:28:37.008Z,5.50
2018-11-25T16:31:06.624Z,5.50
2018-11-25T16:33:35.702Z,5.50
2018-11-25T16:36:04.891Z,5.50
2018-11-25T16:38:33.948Z,5.50
2018-11-25T16:41:02.996Z,5.50
2018-11-25T16:43:32.083Z,5.50
2018-11-25T16:46:01.292Z,5.50
2018-11-25T16:48:30.397Z,5.50
2018-11-25T16:50:59.585Z,5.50
2018-11-25T16:54:53.202Z,5.50
2018-11-25T16:57:22.201Z,5.50
2018-11-25T16:59:51.320Z,5.50
2018-11-25T17:02:20.346Z,5.50
2018-11-25T17:04:49.482Z,5.50
2018-11-25T17:07:18.556Z,5.50
2018-11-25T17:09:47.664Z,5.50
2018-11-25T17:12:16.743Z,5.60
2018-11-25T17:14:45.781Z,5.60
2018-11-25T17:17:14.799Z,5.60
2018-11-25T17:19:43.975Z,5.60
2018-11-25T17:22:16.629Z,5.70
2018-11-25T17:24:42.003Z,5.70
2018-11-25T17:27:11.011Z,5.70
2018-11-25T17:29:40.079Z,5.80
2018-11-25T17:32:09.192Z,5.80
2018-11-25T17:34:38.230Z,5.80
2018-11-25T17:37:07.283Z,5.80
2018-11-25T17:39:36.355Z,5.80
2018-11-25T17:42:05.697Z,5.70
2018-11-25T17:44:34.806Z,5.70
2018-11-25T17:47:03.830Z,5.70
2018-11-25T17:49:32.924Z,5.60
2018-11-25T17:52:01.957Z,5.60
2018-11-25T17:54:31.013Z,5.50
2018-11-25T17:57:00.151Z,5.50
2018-11-25T17:59:29.175Z,5.50
2018-11-25T18:01:58.219Z,5.60
2018-11-25T18:04:27.307Z,5.60
2018-11-25T18:06:56.357Z,5.60
2018-11-25T18:09:25.421Z,5.60
2018-11-25T18:11:54.472Z,5.60
2018-11-25T18:14:43.283Z,5.60
2018-11-25T18:17:12.333Z,5.60
2018-11-25T18:19:41.471Z,5.60
2018-11-25T18:22:17.270Z,5.60
2018-11-25T18:24:46.310Z,5.60
2018-11-25T18:27:15.298Z,5.60
2018-11-25T18:29:44.434Z,5.70
2018-11-25T18:32:13.451Z,5.70
2018-11-25T18:34:42.570Z,5.70
2018-11-25T18:37:11.738Z,5.80
2018-11-25T18:39:40.926Z,5.80
2018-11-25T18:42:09.944Z,5.80
2018-11-25T18:44:38.970Z,5.80
2018-11-25T18:47:08.054Z,5.80
2018-11-25T18:49:37.146Z,5.80
2018-11-25T18:52:06.343Z,5.80
2018-11-25T18:54:46.796Z,5.80
2018-11-25T18:57:15.973Z,5.80
2018-11-25T18:59:45.126Z,5.80
2018-11-25T19:02:18.846Z,5.80
2018-11-25T19:04:47.981Z,5.80
2018-11-25T19:07:17.057Z,5.70
2018-11-25T19:09:47.092Z,5.70
2018-11-25T19:12:16.200Z,5.70
2018-11-25T19:14:45.282Z,5.60
2018-11-25T19:17:14.502Z,5.60
2018-11-25T19:19:43.662Z,5.60
2018-11-25T19:22:12.803Z,5.60
2018-11-25T19:24:41.796Z,5.60
2018-11-25T19:27:10.836Z,5.60
2018-11-25T19:29:39.970Z,5.60
2018-11-25T19:32:09.074Z,5.60
2018-11-25T19:34:38.147Z,5.60
2018-11-25T19:37:07.342Z,5.60
2018-11-25T19:39:36.379Z,5.60
2018-11-25T19:42:05.759Z,5.60
2018-11-25T19:44:35.116Z,5.60
2018-11-25T19:47:04.128Z,5.60
2018-11-25T19:49:33.278Z,5.50
2018-11-25T19:52:02.452Z,5.50
2018-11-25T19:54:31.435Z,5.50
2018-11-25T19:57:00.465Z,5.50
2018-11-25T19:59:29.455Z,5.50
2018-11-25T20:01:58.499Z,5.60
2018-11-25T20:04:27.578Z,5.50
2018-11-25T20:06:56.695Z,5.50
2018-11-25T20:09:30.434Z,5.50
2018-11-25T20:11:59.539Z,5.50
2018-11-25T20:14:28.676Z,5.50
2018-11-25T20:17:29.529Z,5.50
2018-11-25T20:19:58.640Z,5.50
2018-11-25T20:22:27.755Z,5.50
2018-11-25T20:24:56.851Z,5.50
2018-11-25T20:27:31.461Z,5.50
2018-11-25T20:30:00.596Z,5.50
2018-11-25T20:32:35.259Z,5.50
2018-11-25T20:35:04.690Z,5.50
2018-11-25T20:37:33.851Z,5.50
2018-11-25T20:40:03.072Z,5.50
2018-11-25T20:42:32.139Z,5.40
2018-11-25T20:45:01.280Z,5.50
2018-11-25T20:47:30.387Z,5.50
2018-11-25T20:50:00.282Z,5.50
2018-11-25T20:52:34.895Z,5.50
2018-11-25T20:55:03.981Z,5.50
2018-11-25T20:57:33.111Z,5.50
2018-11-25T21:00:02.266Z,5.50
2018-11-25T21:02:31.386Z,5.50
2018-11-25T21:05:00.458Z,5.50
2018-11-25T21:07:29.495Z,5.40
2018-11-25T21:09:58.554Z,5.40
2018-11-25T21:12:27.637Z,5.40
2018-11-25T21:14:56.759Z,5.40
2018-11-25T21:17:25.763Z,5.40
2018-11-25T21:19:54.739Z,5.40
2018-11-25T21:22:23.821Z,5.40
2018-11-25T21:24:52.811Z,5.50
2018-11-25T21:27:21.942Z,5.50
2018-11-25T21:29:50.991Z,5.40
2018-11-25T21:32:20.103Z,5.40
2018-11-25T21:34:49.191Z,5.40
2018-11-25T21:37:18.249Z,5.40
2018-11-25T21:39:47.274Z,5.40
2018-11-25T21:42:16.319Z,5.40
2018-11-25T21:44:45.350Z,5.50
2018-11-25T21:47:14.471Z,5.50
2018-11-25T21:49:43.571Z,5.50
2018-11-25T21:52:12.683Z,5.50
2018-11-25T21:54:41.765Z,5.50
2018-11-25T21:57:10.831Z,5.50
2018-11-25T21:59:39.933Z,5.50
2018-11-25T22:02:09.062Z,5.50
2018-11-25T22:04:38.115Z,5.50
2018-11-25T22:07:07.098Z,5.50
2018-11-25T22:09:36.198Z,5.50
2018-11-25T22:12:05.576Z,5.50
2018-11-25T22:14:34.580Z,5.50
2018-11-25T22:17:03.573Z,5.50
2018-11-25T22:19:32.754Z,5.50
2018-11-25T22:22:01.786Z,5.50
2018-11-25T22:24:30.851Z,5.50
2018-11-25T22:26:59.887Z,5.50
2018-11-25T22:29:28.872Z,5.50
2018-11-25T22:31:57.972Z,5.50
2018-11-25T22:34:27.051Z,5.50
2018-11-25T22:36:56.072Z,5.50
2018-11-25T22:39:25.071Z,5.50
2018-11-25T22:41:54.179Z,5.50
2018-11-25T22:44:23.246Z,5.50
2018-11-25T22:46:52.349Z,5.50
2018-11-25T22:49:21.420Z,5.50
2018-11-25T22:51:50.521Z,5.60
2018-11-25T22:54:19.542Z,5.60
2018-11-25T22:56:48.578Z,5.50
2018-11-25T22:59:17.576Z,5.60
2018-11-25T23:01:46.692Z,5.50
2018-11-25T23:04:27.110Z,5.50
2018-11-25T23:07:03.279Z,5.60
2018-11-25T23:09:32.304Z,5.60
2018-11-25T23:12:02.430Z,5.60
2018-11-25T23:14:31.458Z,5.60
2018-11-25T23:17:00.497Z,5.60
2018-11-25T23:19:29.511Z,5.50
2018-11-25T23:21:58.693Z,5.50
2018-11-25T23:24:27.724Z,5.50
2018-11-25T23:26:56.793Z,5.50
2018-11-25T23:29:25.795Z,5.50
2018-11-25T23:31:54.908Z,5.60
2018-11-25T23:34:23.989Z,5.50
2018-11-25T23:36:53.055Z,5.60
2018-11-25T23:39:22.184Z,5.60
2018-11-25T23:41:51.264Z,5.60
2018-11-25T23:44:20.451Z,5.60
2018-11-25T23:46:49.560Z,5.60
2018-11-25T23:49:18.636Z,5.60
2018-11-25T23:51:47.791Z,5.60
2018-11-25T23:54:16.963Z,5.60
2018-11-25T23:56:45.995Z,5.60
2018-11-25T23:59:14.952Z,5.60
